Watertown Regional Airport
KATY : now visible

Airfield :











YOU CAN JOIN US ON...

 
LOGIN :

Register | Disclaimer

   EN    FR    IT 

 









Legend :    VFR   Marginal VFR   IFR   Intensive IFR   Very Intensive IFR
Visi :
Ceiling :
>= 8 km
>= 3000ft
5 to 8 km
1000 to 3000 ft
1500m to 5 km
500 to 1000 ft
800 to 1500m
200 to 500 ft
< 800m
< 200 ft
Symbols :   Thunderstorms  Fog  Heavy snow  Heavy precipitations  Wind > 20 kt






- Airport Elevation : 1749 ft
- IATA code : ATY


KATY - Watertown Regional

CURRENT METAR :
  • 251902Z AUTO 33016KT 10SM SCT022 M05/M09 A3037 RMK AO2 T10501094

EXPIRED METARs :
  • 251801Z AUTO 33011KT 10SM BKN015 BKN022 M05/M08 A3039 RMK AO2 T10501078
  • 251753Z AUTO 35010KT 10SM SCT021 M05/M08 A3039 RMK AO2 SLP321 60000 T10501083 11050 21072 51003
  • 251732Z AUTO 36011KT 10SM SCT021 BKN047 BKN055 M05/M08 A3040 RMK AO2 T10501083
  • 251653Z AUTO 36010KT 10SM BKN017 BKN047 OVC055 M06/M08 A3039 RMK AO2 SLP320 T10561083

TAF KATY
Valid from the 25 at 18:00 until the 26 at 18:00 UTC


251723Z 2518/2618 36010KT P6SM BKN015 OVC050
FM260100 31010KT P6SM OVC250
FM261200 28007KT P6SM SKC
KZMP FIR / North America



MET'MAP, your aeronautical weather chart ! - Copyright ORBIFLY December 2007 - Disclaimer

ORBIFLY MET'MAP TEAM :

Programming & Development : Alexandra Zaïnal
Concept & original design : Baudouin d'Aumeries
Assistance for programming : Marc-Olivier Méhu
Technical & hardware support : Manuel Goepfert

Contact : metmap@orbifly.com




SOURCES & CREDITS :

   NOAA       Earth
Advisory